RKJK

Kunsan Air Base Airport

Kunsan, South Korea
METAR RKJK 221656Z AUTO 00000KT 10SM BKN190 21/19 A2973 RMK AO2 SLP071 T02100189 $
Observed Flight Rules
Jun-22 @ 16:56 UTC (19 minutes ago) Visual Flight Rules
Visibility Clouds
16,093 meters
  • Broken at 19,000' AGL
Temperatures Readings
Current 21°C / 70°F
Dewpoint 19°C / 66°F
Humidity 88%
Altimeter 29.73" Hg
Pressure 1007.1 hPa
Elevation 9
METAR RKJK 221656Z AUTO 00000KT 10SM BKN190 21/19 A2973 RMK AO2 SLP071 T02100189 $
Observed Flight Rules
Jun-22 @ 16:56 UTC
(19 minutes ago)
VFR
Clouds
  • Broken at 19,000' AGL
Temperature Dewpoint
21°C / 70°F 19°C / 66°F
Humidity Altimeter Pressure
88% 29.73" Hg 1007.1 hPa